Time;durP1;ratioP1;P1;durP2;ratioP2;P2;SDS_P1;SDS_P2;PMS_P1;PMS_P2;Temp;Humidity;BMP_temperature;BMP_pressure;BME280_temperature;BME280_humidity;BME280_pressure;Samples;Min_cycle;Max_cycle;Signal;HPM_P1;HPM_P2
2020/12/17 00:02:03;;;;;;;24.67;11.07;;;6.20;77.60;;;;;;4900334;29;20123;-81
2020/12/17 00:04:28;;;;;;;22.40;10.27;;;6.10;77.50;;;;;;4912676;29;20054;-81
2020/12/17 00:06:55;;;;;;;24.45;10.48;;;6.10;77.50;;;;;;4896896;29;20477;-81
2020/12/17 00:09:21;;;;;;;26.88;10.95;;;6.10;77.70;;;;;;4901650;29;20047;-81
2020/12/17 00:11:47;;;;;;;28.70;10.77;;;6.10;77.70;;;;;;4919077;29;20394;-81
2020/12/17 00:14:14;;;;;;;26.50;10.35;;;6.10;77.60;;;;;;4918777;29;20047;-82
2020/12/17 00:16:39;;;;;;;23.55;9.50;;;6.10;77.60;;;;;;4901892;29;20056;-81
2020/12/17 00:19:05;;;;;;;22.42;10.00;;;6.10;77.20;;;;;;4907038;29;20066;-81
2020/12/17 00:21:32;;;;;;;25.40;10.32;;;6.10;77.30;;;;;;4918627;29;20031;-81
2020/12/17 00:23:58;;;;;;;28.02;10.52;;;6.10;77.20;;;;;;4902346;29;20042;-81
2020/12/17 00:26:26;;;;;;;24.23;10.32;;;6.00;77.10;;;;;;4923333;29;20099;-81
2020/12/17 00:28:53;;;;;;;22.23;9.88;;;6.00;77.10;;;;;;4907528;29;20036;-81
2020/12/17 00:31:18;;;;;;;17.42;7.90;;;5.90;77.20;;;;;;4920304;29;20071;-81
2020/12/17 00:33:45;;;;;;;21.02;8.55;;;5.90;77.30;;;;;;4902156;29;20437;-81
2020/12/17 00:36:11;;;;;;;20.35;8.35;;;5.80;77.10;;;;;;4901527;29;20029;-81
2020/12/17 00:38:37;;;;;;;24.25;10.73;;;5.80;77.10;;;;;;4906671;29;20538;-81
2020/12/17 00:41:02;;;;;;;21.33;8.43;;;5.80;77.20;;;;;;4900337;29;20052;-81
2020/12/17 00:43:28;;;;;;;22.73;8.60;;;5.80;77.20;;;;;;4900949;29;20040;-81
2020/12/17 00:45:54;;;;;;;19.00;7.55;;;5.80;77.50;;;;;;4897853;29;20480;-81
2020/12/17 00:48:19;;;;;;;20.63;7.97;;;5.80;77.40;;;;;;4897688;29;20113;-81
2020/12/17 00:50:45;;;;;;;20.98;8.10;;;5.80;77.50;;;;;;4917644;29;20547;-82
2020/12/17 00:53:11;;;;;;;20.13;7.10;;;5.80;77.50;;;;;;4900512;29;20063;-82
2020/12/17 00:55:36;;;;;;;19.05;7.65;;;5.70;77.20;;;;;;4898913;29;20079;-82
2020/12/17 00:58:02;;;;;;;19.02;7.60;;;5.70;77.10;;;;;;4914257;29;20023;-83
2020/12/17 01:00:27;;;;;;;18.38;7.22;;;5.70;77.10;;;;;;4901765;29;20484;-82
2020/12/17 01:02:53;;;;;;;22.48;8.63;;;5.70;77.30;;;;;;4898167;29;20028;-83
2020/12/17 01:05:18;;;;;;;18.35;7.53;;;5.70;77.40;;;;;;4914939;29;20059;-82
2020/12/17 01:07:44;;;;;;;17.45;8.27;;;5.60;77.10;;;;;;4918081;29;20028;-82
2020/12/17 01:10:10;;;;;;;21.80;8.30;;;5.60;77.10;;;;;;4897130;29;20034;-82
2020/12/17 01:12:38;;;;;;;18.00;7.78;;;5.60;76.90;;;;;;4909635;29;20032;-82
2020/12/17 01:15:04;;;;;;;18.92;8.20;;;5.60;77.40;;;;;;4900565;29;20527;-82
2020/12/17 01:17:30;;;;;;;22.92;8.93;;;5.60;77.60;;;;;;4917858;29;20032;-83
2020/12/17 01:19:55;;;;;;;21.42;8.38;;;5.60;77.50;;;;;;4882800;29;20024;-83
2020/12/17 01:22:21;;;;;;;19.67;8.32;;;5.60;77.60;;;;;;4899172;29;20035;-82
2020/12/17 01:24:47;;;;;;;22.02;8.30;;;5.60;77.30;;;;;;4917912;29;20056;-82
2020/12/17 01:27:12;;;;;;;21.83;8.18;;;5.60;77.40;;;;;;4881611;29;20031;-82
2020/12/17 01:29:38;;;;;;;19.08;8.55;;;5.60;77.40;;;;;;4898985;29;20446;-82
2020/12/17 01:32:03;;;;;;;20.40;7.25;;;5.60;77.40;;;;;;4906445;29;20031;-82
2020/12/17 01:34:29;;;;;;;19.10;7.75;;;5.60;77.50;;;;;;4901459;29;21321;-82
2020/12/17 01:36:56;;;;;;;22.38;9.57;;;5.60;77.50;;;;;;4911471;29;20024;-82
2020/12/17 01:39:23;;;;;;;20.20;8.40;;;5.60;77.40;;;;;;4918524;29;20050;-82
2020/12/17 01:41:48;;;;;;;18.75;7.32;;;5.60;77.20;;;;;;4923579;29;20385;-80
2020/12/17 01:44:14;;;;;;;20.10;8.73;;;5.50;77.90;;;;;;4905731;29;20040;-80
2020/12/17 01:46:40;;;;;;;21.63;8.38;;;5.50;77.20;;;;;;4897653;29;20043;-80
2020/12/17 01:49:06;;;;;;;17.58;7.43;;;5.50;77.20;;;;;;4900421;29;20123;-80
2020/12/17 01:51:32;;;;;;;19.92;7.25;;;5.40;77.10;;;;;;4906672;29;20065;-80
2020/12/17 01:53:57;;;;;;;22.90;8.80;;;5.40;77.20;;;;;;4903630;29;20032;-80
2020/12/17 01:56:25;;;;;;;21.23;8.65;;;5.40;77.50;;;;;;4904790;29;20055;-81
2020/12/17 01:59:03;;;;;;;17.60;7.32;;;5.40;77.30;;;;;;4904253;29;20036;-81
2020/12/17 02:01:31;;;;;;;16.50;6.75;;;5.40;77.30;;;;;;4904186;29;20115;-80
2020/12/17 02:04:01;;;;;;;17.15;7.88;;;5.40;77.60;;;;;;4903625;29;20024;-82
2020/12/17 02:06:27;;;;;;;20.17;7.40;;;5.30;77.60;;;;;;4903988;29;20564;-80
2020/12/17 02:08:53;;;;;;;21.50;8.77;;;5.40;77.50;;;;;;4921151;29;20039;-80
2020/12/17 02:11:20;;;;;;;23.50;9.60;;;5.50;77.70;;;;;;4901555;29;20031;-80
2020/12/17 02:13:46;;;;;;;18.42;7.45;;;5.40;77.30;;;;;;4903735;29;20020;-81
2020/12/17 02:16:13;;;;;;;22.38;8.65;;;5.40;77.20;;;;;;4904005;29;20024;-81
2020/12/17 02:18:39;;;;;;;22.65;7.93;;;5.40;77.50;;;;;;4926011;29;20400;-81
2020/12/17 02:21:05;;;;;;;18.75;7.93;;;5.40;77.40;;;;;;4926857;29;20025;-81
2020/12/17 02:23:30;;;;;;;18.90;7.38;;;5.40;77.50;;;;;;4900361;29;20536;-81
2020/12/17 02:25:56;;;;;;;21.98;8.00;;;5.40;77.50;;;;;;4903716;29;20025;-82
2020/12/17 02:28:22;;;;;;;19.73;8.40;;;5.40;77.40;;;;;;4879523;29;20032;-81
2020/12/17 02:30:50;;;;;;;19.00;7.68;;;5.40;77.70;;;;;;4904043;29;20071;-81
2020/12/17 02:33:16;;;;;;;18.05;7.63;;;5.40;77.40;;;;;;4926816;29;20569;-81
2020/12/17 02:35:42;;;;;;;23.38;8.60;;;5.30;77.30;;;;;;4926314;29;20389;-81
2020/12/17 02:38:07;;;;;;;16.50;7.13;;;5.30;77.50;;;;;;4904001;29;20020;-81
2020/12/17 02:40:34;;;;;;;19.25;7.80;;;5.30;77.50;;;;;;4904774;29;20115;-81
2020/12/17 02:42:59;;;;;;;21.23;7.85;;;5.40;77.90;;;;;;4903430;29;20118;-81
2020/12/17 02:45:25;;;;;;;22.42;8.02;;;5.40;77.70;;;;;;4884959;29;20126;-81
2020/12/17 02:47:51;;;;;;;20.65;8.70;;;5.40;77.50;;;;;;4920799;29;20024;-81
2020/12/17 02:50:18;;;;;;;17.48;7.65;;;5.40;77.50;;;;;;4903480;29;20043;-81
2020/12/17 02:52:43;;;;;;;19.70;7.88;;;5.40;77.40;;;;;;4903314;29;20028;-81
2020/12/17 02:55:10;;;;;;;19.23;7.05;;;5.30;77.20;;;;;;4903057;29;20079;-81
2020/12/17 02:57:35;;;;;;;20.92;7.55;;;5.30;77.60;;;;;;4903253;29;20036;-81
2020/12/17 03:00:06;;;;;;;19.13;7.20;;;5.30;77.40;;;;;;4903566;29;20433;-81
2020/12/17 03:02:32;;;;;;;18.77;7.25;;;5.30;77.60;;;;;;4920817;29;20051;-81
2020/12/17 03:04:57;;;;;;;20.15;7.63;;;5.40;77.70;;;;;;4908735;29;20036;-81
2020/12/17 03:07:23;;;;;;;17.38;7.60;;;5.30;77.40;;;;;;4906465;29;20076;-81
2020/12/17 03:09:48;;;;;;;17.30;7.20;;;5.30;77.00;;;;;;4890591;29;20059;-82
2020/12/17 03:12:14;;;;;;;14.57;5.78;;;5.20;77.00;;;;;;4920349;29;20025;-81
2020/12/17 03:14:39;;;;;;;20.50;7.45;;;5.20;77.10;;;;;;4903201;29;20043;-81
2020/12/17 03:17:05;;;;;;;19.83;6.72;;;5.10;77.30;;;;;;4903054;29;20024;-81
2020/12/17 03:19:31;;;;;;;17.58;7.35;;;5.10;77.40;;;;;;4908486;29;20122;-80
2020/12/17 03:21:56;;;;;;;20.13;8.27;;;5.20;77.70;;;;;;4915324;29;20058;-81
2020/12/17 03:24:22;;;;;;;22.35;8.55;;;5.20;77.70;;;;;;4932062;29;20043;-81
2020/12/17 03:26:47;;;;;;;19.10;8.43;;;5.20;77.40;;;;;;4919854;29;20039;-81
2020/12/17 03:29:13;;;;;;;20.42;8.23;;;5.20;77.60;;;;;;4901376;29;20534;-81
2020/12/17 03:31:39;;;;;;;19.80;8.35;;;5.20;77.70;;;;;;4904462;29;20032;-81
2020/12/17 03:34:04;;;;;;;22.05;8.70;;;5.20;77.30;;;;;;4903024;29;20380;-80
2020/12/17 03:36:30;;;;;;;24.15;9.02;;;5.20;77.50;;;;;;4920973;29;20044;-80
2020/12/17 03:38:56;;;;;;;23.00;8.65;;;5.20;77.60;;;;;;4903551;29;20031;-80
2020/12/17 03:41:21;;;;;;;21.77;7.30;;;5.20;77.60;;;;;;4904426;29;20044;-80
2020/12/17 03:43:47;;;;;;;18.80;7.45;;;5.20;77.70;;;;;;4895543;29;20031;-80
2020/12/17 03:46:13;;;;;;;22.33;7.70;;;5.20;77.50;;;;;;4908814;29;20157;-79
2020/12/17 03:48:38;;;;;;;23.85;9.85;;;5.10;77.50;;;;;;4913500;29;20060;-80
2020/12/17 03:51:04;;;;;;;23.90;9.73;;;5.20;77.60;;;;;;4921798;29;20059;-81
2020/12/17 03:53:30;;;;;;;23.60;8.95;;;5.20;77.60;;;;;;4921456;29;20384;-81
2020/12/17 03:55:55;;;;;;;24.02;9.20;;;5.20;77.70;;;;;;4902789;29;20027;-81
2020/12/17 03:58:21;;;;;;;21.27;8.15;;;5.30;77.90;;;;;;4919318;29;20476;-81
2020/12/17 04:00:47;;;;;;;20.20;8.20;;;5.20;77.70;;;;;;4906259;29;20027;-81
2020/12/17 04:03:12;;;;;;;20.70;7.78;;;5.30;77.90;;;;;;4919301;29;20032;-80
2020/12/17 04:05:38;;;;;;;25.90;8.65;;;5.30;77.70;;;;;;4902590;29;20032;-81
2020/12/17 04:08:03;;;;;;;23.15;8.80;;;5.30;78.30;;;;;;4902095;29;20028;-80
2020/12/17 04:10:29;;;;;;;21.85;8.88;;;5.30;77.30;;;;;;4906660;29;20400;-81
2020/12/17 04:12:54;;;;;;;26.80;9.32;;;5.20;77.60;;;;;;4900352;29;20477;-81
2020/12/17 04:15:20;;;;;;;22.42;9.00;;;5.20;77.70;;;;;;4901491;29;20063;-80
2020/12/17 04:17:46;;;;;;;26.95;10.02;;;5.20;78.00;;;;;;4899548;29;20028;-80
2020/12/17 04:20:11;;;;;;;23.33;9.20;;;5.20;77.80;;;;;;4901501;29;20589;-81
2020/12/17 04:22:37;;;;;;;21.55;8.60;;;5.20;77.50;;;;;;4895194;29;20485;-80
2020/12/17 04:25:03;;;;;;;22.98;8.48;;;5.20;77.60;;;;;;4899055;29;20059;-80
2020/12/17 04:27:28;;;;;;;21.48;8.27;;;5.30;77.70;;;;;;4901741;29;20481;-80
2020/12/17 04:29:55;;;;;;;27.30;8.15;;;5.20;77.70;;;;;;4901684;29;20548;-80
2020/12/17 04:32:20;;;;;;;24.48;8.68;;;5.20;77.70;;;;;;4901555;29;20051;-80
2020/12/17 04:34:46;;;;;;;22.17;7.78;;;5.20;78.20;;;;;;4901490;29;20481;-80
2020/12/17 04:37:12;;;;;;;27.23;8.95;;;5.20;77.70;;;;;;4898318;29;20072;-80
2020/12/17 04:39:38;;;;;;;24.55;9.23;;;5.20;77.70;;;;;;4929698;29;20051;-80
2020/12/17 04:42:05;;;;;;;26.50;10.18;;;5.30;77.90;;;;;;4918219;29;20031;-80
2020/12/17 04:44:31;;;;;;;24.98;8.80;;;5.30;77.80;;;;;;4923840;29;20087;-80
2020/12/17 04:47:03;;;;;;;25.35;9.27;;;5.30;77.70;;;;;;4902200;29;20099;-80
2020/12/17 04:49:48;;;;;;;24.50;8.80;;;5.30;78.00;;;;;;4901211;29;20056;-80
2020/12/17 04:52:14;;;;;;;27.35;10.50;;;5.30;78.10;;;;;;4914831;29;20370;-80
2020/12/17 04:54:40;;;;;;;21.98;8.50;;;5.40;78.00;;;;;;4901306;29;20031;-80
2020/12/17 04:57:12;;;;;;;26.30;9.45;;;5.40;78.00;;;;;;4908151;29;20030;-80
2020/12/17 04:59:43;;;;;;;27.40;11.52;;;5.40;77.90;;;;;;4901115;29;20028;-80
2020/12/17 05:02:10;;;;;;;23.38;9.25;;;5.40;77.80;;;;;;4901806;29;20024;-80
2020/12/17 05:04:41;;;;;;;25.45;10.43;;;5.40;77.90;;;;;;4924706;29;20064;-80
2020/12/17 05:07:11;;;;;;;26.15;9.13;;;5.30;77.80;;;;;;4900995;29;20020;-80
2020/12/17 05:09:38;;;;;;;25.63;10.32;;;5.40;77.80;;;;;;4900868;29;20068;-80
2020/12/17 05:12:04;;;;;;;29.42;10.15;;;5.40;77.70;;;;;;4898226;29;20028;-81
2020/12/17 05:14:30;;;;;;;26.08;10.10;;;5.40;77.90;;;;;;4900921;29;20032;-80
2020/12/17 05:16:56;;;;;;;28.88;11.18;;;5.40;77.90;;;;;;4900967;29;20024;-80
2020/12/17 05:19:23;;;;;;;27.88;11.05;;;5.40;78.00;;;;;;4899005;29;20040;-80
2020/12/17 05:21:50;;;;;;;30.50;11.25;;;5.50;78.10;;;;;;4916682;29;20084;-80
2020/12/17 05:24:18;;;;;;;26.73;10.23;;;5.50;78.10;;;;;;4900772;29;20036;-80
2020/12/17 05:26:44;;;;;;;29.25;10.75;;;5.50;78.00;;;;;;4900796;29;20396;-80
2020/12/17 05:29:11;;;;;;;33.13;12.00;;;5.50;78.00;;;;;;4900157;29;20032;-80
2020/12/17 05:31:37;;;;;;;27.85;10.50;;;5.50;78.00;;;;;;4901271;29;20079;-80
2020/12/17 05:34:06;;;;;;;31.17;11.70;;;5.50;77.90;;;;;;4880816;29;20040;-80
2020/12/17 05:36:32;;;;;;;26.95;10.50;;;5.50;77.90;;;;;;4906168;29;20028;-80
2020/12/17 05:39:15;;;;;;;28.58;10.40;;;5.50;77.60;;;;;;4900279;29;20555;-80
2020/12/17 05:41:43;;;;;;;36.53;13.38;;;5.50;77.80;;;;;;4906410;29;20043;-80
2020/12/17 05:44:14;;;;;;;25.95;11.35;;;5.40;77.70;;;;;;4900430;29;20040;-80
2020/12/17 05:46:42;;;;;;;26.95;9.93;;;5.40;77.90;;;;;;4901065;29;20064;-80
2020/12/17 05:49:13;;;;;;;35.97;11.32;;;5.50;78.00;;;;;;4904349;29;20056;-80
2020/12/17 05:51:40;;;;;;;32.35;12.02;;;5.50;78.00;;;;;;4912576;29;20055;-80
2020/12/17 05:54:10;;;;;;;29.00;11.98;;;5.50;77.70;;;;;;4897908;29;20034;-80
2020/12/17 05:56:39;;;;;;;30.13;11.30;;;5.40;77.60;;;;;;4900558;29;20039;-80
2020/12/17 05:59:05;;;;;;;32.95;10.93;;;5.40;77.80;;;;;;4898643;29;20066;-80
2020/12/17 06:01:32;;;;;;;28.45;10.95;;;5.40;77.70;;;;;;4891534;29;20060;-80
2020/12/17 06:03:58;;;;;;;33.42;13.00;;;5.40;78.00;;;;;;4905801;29;20036;-80
2020/12/17 06:06:24;;;;;;;34.33;12.00;;;5.50;77.90;;;;;;4900403;29;20524;-80
2020/12/17 06:08:53;;;;;;;27.88;10.07;;;5.40;77.90;;;;;;4893351;29;20540;-80
2020/12/17 06:11:23;;;;;;;31.15;10.15;;;5.40;77.90;;;;;;4916873;29;20074;-80
2020/12/17 06:13:57;;;;;;;29.70;10.15;;;5.40;77.90;;;;;;4880275;29;20381;-80
2020/12/17 06:16:23;;;;;;;29.27;11.13;;;5.40;77.90;;;;;;4905946;29;20514;-81
2020/12/17 06:18:57;;;;;;;27.52;10.50;;;5.50;78.40;;;;;;4902376;29;20079;-86
2020/12/17 06:21:27;;;;;;;26.48;10.27;;;5.50;78.40;;;;;;4910073;29;20031;-87
2020/12/17 06:23:57;;;;;;;30.27;10.45;;;5.50;78.50;;;;;;4897885;29;20032;-86
2020/12/17 06:26:23;;;;;;;30.60;10.65;;;5.60;78.40;;;;;;4923994;29;20456;-86
2020/12/17 06:32:17;;;;;;;27.80;10.57;;;5.50;77.90;;;;;;4900635;29;20024;-80
2020/12/17 06:34:49;;;;;;;29.05;10.95;;;5.60;78.20;;;;;;4900351;29;20048;-89
2020/12/17 06:37:16;;;;;;;29.45;11.23;;;5.50;77.90;;;;;;4901172;29;20044;-89
2020/12/17 06:39:48;;;;;;;29.25;11.13;;;5.60;78.20;;;;;;4901174;29;20055;-88
2020/12/17 06:42:36;;;;;;;27.98;11.07;;;5.60;78.20;;;;;;4901801;29;20377;-84
2020/12/17 06:45:04;;;;;;;24.77;10.20;;;5.50;77.80;;;;;;4903719;29;20366;-85
2020/12/17 06:47:30;;;;;;;25.80;10.48;;;5.50;78.10;;;;;;4913351;29;20055;-84
2020/12/17 06:50:22;;;;;;;22.27;9.10;;;5.60;78.10;;;;;;4884792;29;20059;-84
2020/12/17 06:53:18;;;;;;;26.60;10.45;;;5.50;78.10;;;;;;4903744;29;20548;-92
2020/12/17 06:55:45;;;;;;;26.92;9.18;;;5.60;78.10;;;;;;4883168;29;20042;-90
2020/12/17 06:58:20;;;;;;;24.55;9.02;;;5.60;78.30;;;;;;4903136;29;20114;-86
2020/12/17 07:00:51;;;;;;;19.65;8.02;;;5.60;78.20;;;;;;4908487;29;20080;-89
2020/12/17 07:03:59;;;;;;;25.13;9.05;;;5.50;77.90;;;;;;4908761;29;20036;-91
2020/12/17 07:06:25;;;;;;;26.50;8.98;;;5.50;78.10;;;;;;4906303;29;20032;-91
2020/12/17 07:08:55;;;;;;;27.73;9.80;;;5.50;78.00;;;;;;4909014;29;20511;-92
2020/12/17 07:11:45;;;;;;;22.15;8.65;;;5.50;77.90;;;;;;4901609;29;20036;-90
2020/12/17 07:14:26;;;;;;;22.65;9.45;;;5.50;78.00;;;;;;4903322;29;20039;-90
2020/12/17 07:16:57;;;;;;;25.75;9.23;;;5.50;78.20;;;;;;4916467;29;20083;-91
2020/12/17 07:19:48;;;;;;;21.48;9.20;;;5.50;78.00;;;;;;4904151;29;20024;-92
2020/12/17 07:22:19;;;;;;;16.27;7.05;;;5.50;77.90;;;;;;4907750;29;20031;-90
2020/12/17 07:24:52;;;;;;;20.25;8.10;;;5.50;78.30;;;;;;4916496;29;20111;-88
2020/12/17 07:28:48;;;;;;;;;;;;;;;;;;;;;
2020/12/17 07:31:26;;;;;;;19.27;8.38;;;5.50;78.10;;;;;;4824731;29;20033;-90
2020/12/17 07:33:52;;;;;;;18.73;7.88;;;5.50;78.00;;;;;;4808068;29;20050;-90
2020/12/17 07:36:18;;;;;;;19.15;8.20;;;5.50;77.80;;;;;;4883004;29;20074;-89
2020/12/17 07:38:45;;;;;;;17.65;7.22;;;5.40;77.80;;;;;;4902403;29;20047;-88
2020/12/17 07:41:25;;;;;;;23.23;8.32;;;5.50;78.10;;;;;;4904665;29;20043;-89
2020/12/17 07:43:52;;;;;;;18.63;8.13;;;5.50;78.50;;;;;;4905912;29;20119;-87
2020/12/17 07:46:38;;;;;;;18.33;8.00;;;5.50;78.50;;;;;;4907259;29;20032;-88
2020/12/17 07:49:30;;;;;;;16.83;6.57;;;5.60;78.50;;;;;;4895280;29;20020;-89
2020/12/17 07:51:56;;;;;;;20.38;7.95;;;5.60;78.20;;;;;;4930692;29;20488;-89
2020/12/17 07:54:22;;;;;;;20.63;8.60;;;5.60;78.20;;;;;;4902032;29;20107;-89
2020/12/17 07:56:49;;;;;;;16.05;7.28;;;5.70;78.30;;;;;;4909257;29;20476;-89
2020/12/17 07:59:15;;;;;;;18.98;7.72;;;5.60;78.10;;;;;;4902368;29;20504;-89
2020/12/17 08:01:41;;;;;;;17.55;8.07;;;5.70;78.40;;;;;;4908001;29;20087;-89
2020/12/17 08:04:08;;;;;;;18.90;7.68;;;5.70;78.30;;;;;;4916072;29;20039;-90
2020/12/17 08:06:34;;;;;;;16.58;7.25;;;5.70;78.40;;;;;;4916361;29;20020;-90
2020/12/17 08:09:02;;;;;;;16.05;7.30;;;5.70;78.10;;;;;;4907043;29;20056;-90
2020/12/17 08:11:28;;;;;;;18.67;7.57;;;5.80;78.10;;;;;;4900055;29;20107;-91
2020/12/17 08:13:58;;;;;;;19.52;8.40;;;5.80;78.30;;;;;;4907549;29;20055;-93
2020/12/17 08:16:24;;;;;;;19.90;8.15;;;5.80;78.30;;;;;;4914005;29;20036;-92
2020/12/17 08:18:56;;;;;;;18.63;7.75;;;5.80;78.30;;;;;;4914408;29;20581;-92
2020/12/17 08:21:23;;;;;;;17.90;7.13;;;5.80;78.40;;;;;;4910073;29;20071;-92
2020/12/17 08:23:50;;;;;;;19.30;7.60;;;5.90;78.40;;;;;;4910133;29;20023;-93
2020/12/17 08:26:27;;;;;;;16.33;7.30;;;5.90;78.40;;;;;;4912651;29;20115;-92
2020/12/17 08:28:55;;;;;;;18.20;7.95;;;5.90;78.40;;;;;;4916942;29;20032;-88
2020/12/17 08:31:21;;;;;;;18.27;7.63;;;5.90;78.40;;;;;;4925587;29;20032;-89
2020/12/17 08:34:04;;;;;;;16.67;7.35;;;5.90;78.00;;;;;;4911374;29;20043;-90
2020/12/17 09:00:19;;;;;;;15.68;6.82;;;6.10;78.70;;;;;;5184803;23;20103;-86
2020/12/17 09:02:57;;;;;;;12.70;5.68;;;6.20;78.40;;;;;;4935232;29;20047;-87
2020/12/17 09:05:31;;;;;;;15.60;7.45;;;6.20;78.40;;;;;;4913800;29;20094;-88
2020/12/17 09:07:57;;;;;;;14.73;6.63;;;6.20;78.20;;;;;;4918206;29;20039;-88
2020/12/17 09:10:36;;;;;;;15.35;7.07;;;6.10;78.10;;;;;;4929945;29;20027;-89
2020/12/17 09:13:03;;;;;;;14.23;6.22;;;6.20;78.50;;;;;;4919958;29;20055;-88
2020/12/17 09:15:34;;;;;;;13.65;5.90;;;6.20;78.40;;;;;;4935113;29;20082;-88
2020/12/17 09:18:09;;;;;;;14.00;6.00;;;6.20;78.50;;;;;;4937689;29;20055;-88
2020/12/17 09:20:38;;;;;;;13.55;6.07;;;6.30;78.50;;;;;;4929503;29;20078;-89
2020/12/17 09:23:10;;;;;;;12.82;5.70;;;6.30;78.50;;;;;;4929346;29;20400;-88
2020/12/17 09:25:47;;;;;;;14.65;6.22;;;6.30;78.40;;;;;;4924868;29;20031;-88
2020/12/17 09:28:23;;;;;;;14.52;6.03;;;6.30;78.00;;;;;;4913503;29;20031;-89
2020/12/17 09:31:01;;;;;;;13.63;5.85;;;6.30;78.30;;;;;;4920484;29;20034;-90
2020/12/17 09:37:39;;;;;;;;;;;;;;;;;;;;;
2020/12/17 09:44:02;;;;;;;;;;;;;;;;;;;;;
2020/12/17 09:47:32;;;;;;;13.00;5.50;;;6.20;78.70;;;;;;4867875;29;20041;-91
2020/12/17 09:50:36;;;;;;;12.65;4.97;;;6.30;78.80;;;;;;4841330;29;20034;-92
2020/12/17 09:53:19;;;;;;;13.98;5.78;;;6.40;78.30;;;;;;4860246;29;20029;-91
2020/12/17 09:56:07;;;;;;;;;;;;;;;;;;;;;
2020/12/17 09:59:00;;;;;;;12.43;5.68;;;6.50;78.80;;;;;;4937934;29;20503;-91
2020/12/17 10:02:22;;;;;;;;;;;;;;;;;;;;;
2020/12/17 10:05:21;;;;;;;;;;;;;;;;;;;;;
2020/12/17 10:11:11;;;;;;;12.98;5.05;;;7.00;78.80;;;;;;4864318;29;20101;-91
2020/12/17 10:13:49;;;;;;;11.18;5.43;;;7.00;78.30;;;;;;4863428;29;20756;-92
2020/12/17 10:16:31;;;;;;;13.85;5.18;;;7.00;78.60;;;;;;4912293;29;20059;-91
2020/12/17 10:19:25;;;;;;;11.73;5.53;;;6.90;77.90;;;;;;4927654;29;20472;-86
2020/12/17 10:21:53;;;;;;;12.20;5.28;;;7.00;78.40;;;;;;4900873;29;20481;-90
2020/12/17 10:27:08;;;;;;;9.82;4.60;;;7.10;78.70;;;;;;4913856;29;20036;-90
2020/12/17 10:29:36;;;;;;;11.20;4.75;;;7.10;78.70;;;;;;4930319;29;20023;-88
2020/12/17 10:32:07;;;;;;;10.82;4.82;;;7.20;78.90;;;;;;4919558;29;20019;-88
2020/12/17 10:34:39;;;;;;;13.18;5.50;;;7.20;78.40;;;;;;4923908;29;20031;-90
2020/12/17 10:37:11;;;;;;;13.13;5.15;;;7.30;78.90;;;;;;4906860;29;20023;-91
2020/12/17 10:39:42;;;;;;;14.88;5.10;;;7.40;79.10;;;;;;4926543;29;20064;-91
2020/12/17 10:42:08;;;;;;;7.25;3.63;;;7.50;79.40;;;;;;4933926;29;20079;-92
2020/12/17 10:44:42;;;;;;;11.77;5.28;;;7.70;79.00;;;;;;4935628;29;20035;-92
2020/12/17 10:47:10;;;;;;;9.90;4.47;;;7.60;78.10;;;;;;4926423;29;20074;-91
2020/12/17 10:49:36;;;;;;;9.88;4.47;;;7.80;79.50;;;;;;4926364;29;20055;-91
2020/12/17 10:52:18;;;;;;;12.57;4.80;;;8.00;79.80;;;;;;4929071;29;20485;-92
2020/12/17 10:54:43;;;;;;;11.38;4.88;;;8.20;79.70;;;;;;4926925;29;20106;-92
2020/12/17 10:57:27;;;;;;;11.68;4.65;;;8.40;79.40;;;;;;4926526;29;20024;-90
2020/12/17 11:10:38;;;;;;;9.77;4.65;;;9.10;79.60;;;;;;4819238;29;20034;-89
2020/12/17 11:13:04;;;;;;;;;;;9.10;78.70;;;;;;4876951;29;20029;-91
2020/12/17 11:15:31;;;;;;;10.65;4.82;;;9.10;78.50;;;;;;4870175;29;20341;-91
2020/12/17 11:17:59;;;;;;;9.20;4.40;;;9.20;79.10;;;;;;4910827;29;20047;-91
2020/12/17 11:20:28;;;;;;;10.88;4.85;;;9.20;78.60;;;;;;4908113;29;20052;-91
2020/12/17 11:22:57;;;;;;;9.95;4.45;;;9.10;78.50;;;;;;4908080;29;20039;-91
2020/12/17 11:25:25;;;;;;;10.55;4.68;;;9.20;79.10;;;;;;4907968;29;20127;-92
2020/12/17 11:27:51;;;;;;;10.48;4.75;;;9.30;79.10;;;;;;4906772;29;20016;-90
2020/12/17 11:30:20;;;;;;;10.07;4.18;;;9.40;79.40;;;;;;4921116;29;20032;-92
2020/12/17 11:32:46;;;;;;;9.60;4.25;;;9.70;80.70;;;;;;4910425;29;20032;-90
2020/12/17 11:35:21;;;;;;;10.00;4.57;;;10.00;80.20;;;;;;4923470;29;20020;-92
2020/12/17 11:37:50;;;;;;;9.27;4.05;;;10.10;80.10;;;;;;4895507;29;20035;-89
2020/12/17 11:40:36;;;;;;;10.80;4.47;;;10.30;79.60;;;;;;4913384;29;20035;-90
2020/12/17 11:43:32;;;;;;;9.90;4.47;;;10.20;78.70;;;;;;4905009;29;20063;-92
2020/12/17 11:49:37;;;;;;;10.02;4.47;;;10.60;79.00;;;;;;4906038;29;20032;-93
2020/12/17 11:52:03;;;;;;;8.57;3.85;;;10.80;80.30;;;;;;4922068;29;20385;-89
2020/12/17 11:54:29;;;;;;;9.10;4.10;;;11.00;80.10;;;;;;4902793;29;20023;-90
2020/12/17 11:57:00;;;;;;;9.90;4.50;;;11.30;80.40;;;;;;4916523;29;20036;-89
2020/12/17 11:59:28;;;;;;;9.38;4.47;;;11.60;80.80;;;;;;4905730;29;20047;-88
2020/12/17 12:01:57;;;;;;;8.52;4.18;;;11.70;80.00;;;;;;4917065;29;20039;-88
2020/12/17 12:04:24;;;;;;;10.07;4.28;;;12.00;80.30;;;;;;4920538;29;20036;-87
2020/12/17 12:06:55;;;;;;;9.60;4.30;;;12.10;80.10;;;;;;4921321;29;20488;-87
2020/12/17 12:09:26;;;;;;;9.85;4.63;;;12.10;78.00;;;;;;4908083;29;20038;-87
2020/12/17 12:11:58;;;;;;;8.80;3.85;;;12.00;79.00;;;;;;4924142;29;20023;-87
2020/12/17 12:14:25;;;;;;;9.18;4.22;;;12.20;80.30;;;;;;4930230;29;20031;-88
2020/12/17 12:16:54;;;;;;;9.57;4.05;;;12.40;79.90;;;;;;4941108;29;20023;-87
2020/12/17 12:19:20;;;;;;;11.57;4.55;;;12.50;79.90;;;;;;4936869;29;20460;-88
2020/12/17 12:29:19;;;;;;;12.23;4.53;;;12.90;79.90;;;;;;4947244;29;20546;-88
2020/12/17 12:31:52;;;;;;;9.60;4.35;;;13.10;78.20;;;;;;4919667;29;20408;-88
2020/12/17 12:34:18;;;;;;;25.45;10.98;;;12.80;77.80;;;;;;4920015;29;20036;-90
2020/12/17 12:39:59;;;;;;;27.88;12.65;;;12.70;80.30;;;;;;4908714;29;20134;-85
2020/12/17 12:53:59;;;;;;;11.25;4.53;;;12.80;77.00;;;;;;4847282;29;20444;-88
2020/12/17 13:30:15;;;;;;;12.00;5.18;;;11.90;77.00;;;;;;5113951;23;20504;-79
2020/12/17 13:32:41;;;;;;;10.35;4.35;;;11.90;79.00;;;;;;4921267;29;20039;-91
2020/12/17 13:35:17;;;;;;;10.27;4.75;;;12.10;80.00;;;;;;4941372;29;20028;-92
2020/12/17 13:37:51;;;;;;;9.73;4.45;;;12.40;79.20;;;;;;4939062;29;20439;-92
2020/12/17 13:43:46;;;;;;;;;;;;;;;;;;;;;
2020/12/17 13:46:12;;;;;;;11.85;5.15;;;12.80;78.40;;;;;;4964485;28;20048;-87
2020/12/17 13:48:38;;;;;;;9.52;4.43;;;12.80;78.40;;;;;;4950233;28;20539;-88
2020/12/17 13:51:10;;;;;;;9.35;4.40;;;13.10;78.40;;;;;;4933922;29;20027;-87
2020/12/17 13:53:38;;;;;;;8.48;4.00;;;13.20;79.30;;;;;;4956191;29;20051;-85
2020/12/17 14:10:07;;;;;;;10.30;4.30;;;14.10;78.20;;;;;;4867884;29;20045;-89
2020/12/17 14:12:33;;;;;;;9.82;4.55;;;14.10;78.30;;;;;;4877604;29;20085;-91
2020/12/17 14:14:59;;;;;;;10.15;4.65;;;14.10;77.80;;;;;;4914568;29;20432;-91
2020/12/17 14:17:24;;;;;;;9.13;4.32;;;14.10;77.20;;;;;;4926069;29;20498;-92
2020/12/17 14:19:53;;;;;;;9.45;4.50;;;13.90;76.00;;;;;;4929412;29;20055;-90
2020/12/17 14:22:19;;;;;;;9.30;4.07;;;13.50;75.00;;;;;;4923338;29;20028;-89
2020/12/17 14:24:45;;;;;;;8.10;3.92;;;13.10;75.00;;;;;;4924738;29;20490;-90
2020/12/17 14:27:11;;;;;;;10.02;5.20;;;12.80;75.50;;;;;;4938020;29;20032;-89
2020/12/17 14:29:39;;;;;;;10.35;4.72;;;12.50;75.10;;;;;;4929339;29;20376;-87
2020/12/17 14:32:05;;;;;;;9.35;4.82;;;12.30;76.20;;;;;;4923214;29;20024;-92
2020/12/17 14:34:31;;;;;;;12.52;7.50;;;12.10;76.20;;;;;;4928169;29;20365;-92
2020/12/17 14:36:59;;;;;;;12.35;6.80;;;12.00;76.00;;;;;;4929984;29;20028;-91
2020/12/17 14:39:25;;;;;;;10.65;5.45;;;11.80;76.00;;;;;;4940752;29;20031;-90
2020/12/17 14:42:00;;;;;;;10.75;5.90;;;11.50;75.50;;;;;;4920705;29;20532;-89
2020/12/17 14:44:26;;;;;;;12.07;5.82;;;11.40;75.80;;;;;;4925162;29;20094;-91
2020/12/17 14:47:47;;;;;;;9.88;5.18;;;11.20;75.80;;;;;;4932306;29;20024;-90
2020/12/17 14:50:34;;;;;;;10.75;4.50;;;11.00;75.70;;;;;;4950682;29;20480;-88
2020/12/17 14:53:00;;;;;;;10.73;4.82;;;10.90;75.90;;;;;;4921791;29;20020;-89
2020/12/17 14:55:26;;;;;;;12.70;5.18;;;10.70;75.60;;;;;;4929167;29;20035;-86
2020/12/17 14:57:51;;;;;;;11.32;5.07;;;10.60;76.10;;;;;;4939172;29;20052;-87
2020/12/17 15:00:17;;;;;;;12.65;5.50;;;10.50;76.00;;;;;;4956804;28;20024;-93
2020/12/17 15:02:43;;;;;;;10.75;4.82;;;10.50;76.20;;;;;;4936108;29;20405;-89
2020/12/17 15:05:08;;;;;;;10.27;4.72;;;10.40;75.90;;;;;;4937441;29;20179;-89
2020/12/17 15:07:34;;;;;;;10.68;4.88;;;10.20;75.50;;;;;;4934916;29;20023;-90
2020/12/17 15:10:00;;;;;;;10.80;4.95;;;10.10;75.60;;;;;;4940119;29;20391;-90
2020/12/17 15:12:27;;;;;;;11.55;5.18;;;10.10;75.80;;;;;;4926582;29;20376;-90
2020/12/17 15:14:53;;;;;;;10.25;4.97;;;10.00;75.50;;;;;;4922248;29;20472;-91
2020/12/17 15:17:19;;;;;;;11.38;5.55;;;9.90;76.00;;;;;;4922252;29;20135;-90